sensor_id;sensor_type;location;lat;lon;timestamp;P1;durP1;ratioP1;P2;durP2;ratioP2
43086;SDS011;28708;52.224;6.924;2023-06-01T00:01:36;12.00;;;7.03;;
43086;SDS011;28708;52.224;6.924;2023-06-01T00:04:03;15.63;;;7.07;;
43086;SDS011;28708;52.224;6.924;2023-06-01T00:06:29;13.93;;;7.13;;
43086;SDS011;28708;52.224;6.924;2023-06-01T00:08:58;15.47;;;7.83;;
43086;SDS011;28708;52.224;6.924;2023-06-01T00:11:25;17.08;;;6.22;;
43086;SDS011;28708;52.224;6.924;2023-06-01T00:13:51;17.03;;;7.03;;
43086;SDS011;28708;52.224;6.924;2023-06-01T00:16:17;13.17;;;6.40;;
43086;SDS011;28708;52.224;6.924;2023-06-01T00:18:43;18.80;;;7.23;;
43086;SDS011;28708;52.224;6.924;2023-06-01T00:21:10;15.83;;;6.33;;
43086;SDS011;28708;52.224;6.924;2023-06-01T00:23:36;14.13;;;6.70;;
43086;SDS011;28708;52.224;6.924;2023-06-01T00:26:06;13.55;;;6.45;;
43086;SDS011;28708;52.224;6.924;2023-06-01T00:28:32;14.37;;;6.57;;
43086;SDS011;28708;52.224;6.924;2023-06-01T00:30:59;14.73;;;6.63;;
43086;SDS011;28708;52.224;6.924;2023-06-01T00:33:25;15.37;;;6.20;;
43086;SDS011;28708;52.224;6.924;2023-06-01T00:35:51;14.37;;;6.17;;
43086;SDS011;28708;52.224;6.924;2023-06-01T00:38:18;13.47;;;5.80;;
43086;SDS011;28708;52.224;6.924;2023-06-01T00:40:44;13.37;;;6.30;;
43086;SDS011;28708;52.224;6.924;2023-06-01T00:43:10;15.33;;;6.57;;
43086;SDS011;28708;52.224;6.924;2023-06-01T00:45:37;16.00;;;6.67;;
43086;SDS011;28708;52.224;6.924;2023-06-01T00:48:03;12.27;;;6.53;;
43086;SDS011;28708;52.224;6.924;2023-06-01T00:50:29;11.10;;;6.03;;
43086;SDS011;28708;52.224;6.924;2023-06-01T00:52:56;19.70;;;7.67;;
43086;SDS011;28708;52.224;6.924;2023-06-01T00:55:23;13.83;;;6.50;;
43086;SDS011;28708;52.224;6.924;2023-06-01T00:57:50;13.87;;;6.53;;
43086;SDS011;28708;52.224;6.924;2023-06-01T01:00:17;13.03;;;5.90;;
43086;SDS011;28708;52.224;6.924;2023-06-01T01:02:43;14.60;;;6.40;;
43086;SDS011;28708;52.224;6.924;2023-06-01T01:05:09;14.57;;;6.93;;
43086;SDS011;28708;52.224;6.924;2023-06-01T01:07:51;11.70;;;6.60;;
43086;SDS011;28708;52.224;6.924;2023-06-01T01:10:25;14.30;;;6.17;;
43086;SDS011;28708;52.224;6.924;2023-06-01T01:13:17;14.27;;;6.83;;
43086;SDS011;28708;52.224;6.924;2023-06-01T01:18:32;14.00;;;7.37;;
43086;SDS011;28708;52.224;6.924;2023-06-01T01:21:01;14.57;;;6.93;;
43086;SDS011;28708;52.224;6.924;2023-06-01T01:29:18;13.20;;;7.17;;
43086;SDS011;28708;52.224;6.924;2023-06-01T01:31:49;19.50;;;8.23;;
43086;SDS011;28708;52.224;6.924;2023-06-01T01:34:15;15.50;;;7.70;;
43086;SDS011;28708;52.224;6.924;2023-06-01T01:36:44;16.07;;;7.53;;
43086;SDS011;28708;52.224;6.924;2023-06-01T01:39:10;15.50;;;7.77;;
43086;SDS011;28708;52.224;6.924;2023-06-01T01:41:36;15.10;;;7.30;;
43086;SDS011;28708;52.224;6.924;2023-06-01T01:44:02;18.50;;;7.97;;
43086;SDS011;28708;52.224;6.924;2023-06-01T01:52:05;19.47;;;8.27;;
43086;SDS011;28708;52.224;6.924;2023-06-01T01:54:43;14.93;;;8.00;;
43086;SDS011;28708;52.224;6.924;2023-06-01T01:57:14;16.77;;;7.20;;
43086;SDS011;28708;52.224;6.924;2023-06-01T01:59:41;15.43;;;7.80;;
43086;SDS011;28708;52.224;6.924;2023-06-01T02:02:09;18.93;;;8.60;;
43086;SDS011;28708;52.224;6.924;2023-06-01T02:04:42;19.13;;;8.87;;
43086;SDS011;28708;52.224;6.924;2023-06-01T02:07:09;17.37;;;8.00;;
43086;SDS011;28708;52.224;6.924;2023-06-01T02:09:36;17.23;;;8.17;;
43086;SDS011;28708;52.224;6.924;2023-06-01T02:12:03;14.63;;;7.87;;
43086;SDS011;28708;52.224;6.924;2023-06-01T02:14:30;23.57;;;8.37;;
43086;SDS011;28708;52.224;6.924;2023-06-01T02:16:56;16.10;;;7.60;;
43086;SDS011;28708;52.224;6.924;2023-06-01T02:19:22;15.93;;;7.07;;
43086;SDS011;28708;52.224;6.924;2023-06-01T02:21:48;16.83;;;7.07;;
43086;SDS011;28708;52.224;6.924;2023-06-01T02:24:14;17.07;;;7.07;;
43086;SDS011;28708;52.224;6.924;2023-06-01T02:26:39;19.73;;;6.90;;
43086;SDS011;28708;52.224;6.924;2023-06-01T02:29:05;16.13;;;6.80;;
43086;SDS011;28708;52.224;6.924;2023-06-01T02:31:31;20.50;;;7.57;;
43086;SDS011;28708;52.224;6.924;2023-06-01T02:33:58;20.20;;;7.87;;
43086;SDS011;28708;52.224;6.924;2023-06-01T02:36:25;19.23;;;7.77;;
43086;SDS011;28708;52.224;6.924;2023-06-01T02:38:51;14.37;;;6.90;;
43086;SDS011;28708;52.224;6.924;2023-06-01T02:41:18;18.30;;;7.77;;
43086;SDS011;28708;52.224;6.924;2023-06-01T02:43:43;17.87;;;7.50;;
43086;SDS011;28708;52.224;6.924;2023-06-01T02:46:09;16.53;;;7.30;;
43086;SDS011;28708;52.224;6.924;2023-06-01T02:48:38;17.27;;;7.43;;
43086;SDS011;28708;52.224;6.924;2023-06-01T02:51:04;14.97;;;8.37;;
43086;SDS011;28708;52.224;6.924;2023-06-01T02:53:31;14.70;;;7.20;;
43086;SDS011;28708;52.224;6.924;2023-06-01T02:55:56;17.37;;;7.23;;
43086;SDS011;28708;52.224;6.924;2023-06-01T02:58:37;15.50;;;7.23;;
43086;SDS011;28708;52.224;6.924;2023-06-01T03:01:09;17.23;;;7.80;;
43086;SDS011;28708;52.224;6.924;2023-06-01T03:03:40;20.60;;;8.13;;
43086;SDS011;28708;52.224;6.924;2023-06-01T03:08:48;19.13;;;6.83;;
43086;SDS011;28708;52.224;6.924;2023-06-01T03:11:34;19.07;;;8.30;;
43086;SDS011;28708;52.224;6.924;2023-06-01T03:14:01;17.00;;;7.40;;
43086;SDS011;28708;52.224;6.924;2023-06-01T03:16:27;20.40;;;7.70;;
43086;SDS011;28708;52.224;6.924;2023-06-01T03:19:04;17.53;;;7.70;;
43086;SDS011;28708;52.224;6.924;2023-06-01T03:21:30;17.87;;;7.17;;
43086;SDS011;28708;52.224;6.924;2023-06-01T03:23:57;17.40;;;7.53;;
43086;SDS011;28708;52.224;6.924;2023-06-01T03:26:23;18.27;;;7.87;;
43086;SDS011;28708;52.224;6.924;2023-06-01T03:28:49;17.10;;;7.93;;
43086;SDS011;28708;52.224;6.924;2023-06-01T03:31:15;19.27;;;7.87;;
43086;SDS011;28708;52.224;6.924;2023-06-01T03:33:42;19.60;;;7.57;;
43086;SDS011;28708;52.224;6.924;2023-06-01T03:36:08;18.00;;;7.37;;
43086;SDS011;28708;52.224;6.924;2023-06-01T03:38:33;13.03;;;6.80;;
43086;SDS011;28708;52.224;6.924;2023-06-01T03:40:59;14.40;;;6.60;;
43086;SDS011;28708;52.224;6.924;2023-06-01T03:43:28;15.70;;;7.03;;
43086;SDS011;28708;52.224;6.924;2023-06-01T03:45:55;18.47;;;7.43;;
43086;SDS011;28708;52.224;6.924;2023-06-01T03:48:21;13.97;;;6.93;;
43086;SDS011;28708;52.224;6.924;2023-06-01T03:50:47;16.47;;;6.70;;
43086;SDS011;28708;52.224;6.924;2023-06-01T03:53:12;17.53;;;7.30;;
43086;SDS011;28708;52.224;6.924;2023-06-01T03:55:39;15.97;;;6.60;;
43086;SDS011;28708;52.224;6.924;2023-06-01T03:58:12;17.37;;;6.83;;
43086;SDS011;28708;52.224;6.924;2023-06-01T04:00:39;21.03;;;7.87;;
43086;SDS011;28708;52.224;6.924;2023-06-01T04:03:04;15.67;;;6.80;;
43086;SDS011;28708;52.224;6.924;2023-06-01T04:05:33;21.73;;;7.47;;
43086;SDS011;28708;52.224;6.924;2023-06-01T04:08:01;16.77;;;7.10;;
43086;SDS011;28708;52.224;6.924;2023-06-01T04:10:27;21.67;;;7.80;;
43086;SDS011;28708;52.224;6.924;2023-06-01T04:12:52;12.73;;;6.70;;
43086;SDS011;28708;52.224;6.924;2023-06-01T04:15:22;18.25;;;6.68;;
43086;SDS011;28708;52.224;6.924;2023-06-01T04:17:48;16.83;;;6.43;;
43086;SDS011;28708;52.224;6.924;2023-06-01T04:20:15;16.73;;;6.70;;
43086;SDS011;28708;52.224;6.924;2023-06-01T04:22:42;17.40;;;6.60;;
43086;SDS011;28708;52.224;6.924;2023-06-01T04:25:09;14.03;;;6.77;;
43086;SDS011;28708;52.224;6.924;2023-06-01T04:27:43;18.03;;;6.67;;
43086;SDS011;28708;52.224;6.924;2023-06-01T04:30:11;15.03;;;6.93;;
43086;SDS011;28708;52.224;6.924;2023-06-01T04:32:38;17.77;;;6.40;;
43086;SDS011;28708;52.224;6.924;2023-06-01T04:35:05;17.33;;;6.57;;
43086;SDS011;28708;52.224;6.924;2023-06-01T04:37:32;15.10;;;7.03;;
43086;SDS011;28708;52.224;6.924;2023-06-01T04:40:04;16.57;;;6.40;;
43086;SDS011;28708;52.224;6.924;2023-06-01T04:42:33;16.17;;;7.33;;
43086;SDS011;28708;52.224;6.924;2023-06-01T04:45:00;17.73;;;7.63;;
43086;SDS011;28708;52.224;6.924;2023-06-01T04:47:29;16.90;;;5.88;;
43086;SDS011;28708;52.224;6.924;2023-06-01T04:49:57;20.40;;;6.37;;
43086;SDS011;28708;52.224;6.924;2023-06-01T04:52:23;19.30;;;7.23;;
43086;SDS011;28708;52.224;6.924;2023-06-01T04:54:50;22.43;;;6.60;;
43086;SDS011;28708;52.224;6.924;2023-06-01T04:57:15;20.17;;;7.47;;
43086;SDS011;28708;52.224;6.924;2023-06-01T04:59:41;16.50;;;6.93;;
43086;SDS011;28708;52.224;6.924;2023-06-01T05:02:08;15.17;;;6.60;;
43086;SDS011;28708;52.224;6.924;2023-06-01T05:04:33;19.90;;;7.50;;
43086;SDS011;28708;52.224;6.924;2023-06-01T05:07:00;20.37;;;8.40;;
43086;SDS011;28708;52.224;6.924;2023-06-01T05:09:26;16.40;;;6.67;;
43086;SDS011;28708;52.224;6.924;2023-06-01T05:11:52;16.70;;;7.40;;
43086;SDS011;28708;52.224;6.924;2023-06-01T05:14:17;16.37;;;6.57;;
43086;SDS011;28708;52.224;6.924;2023-06-01T05:16:43;22.13;;;7.37;;
43086;SDS011;28708;52.224;6.924;2023-06-01T05:19:10;17.03;;;7.47;;
43086;SDS011;28708;52.224;6.924;2023-06-01T05:21:36;19.17;;;7.40;;
43086;SDS011;28708;52.224;6.924;2023-06-01T05:24:02;16.17;;;6.63;;
43086;SDS011;28708;52.224;6.924;2023-06-01T05:26:28;16.30;;;6.70;;
43086;SDS011;28708;52.224;6.924;2023-06-01T05:28:53;16.93;;;7.00;;
43086;SDS011;28708;52.224;6.924;2023-06-01T05:31:19;18.97;;;7.30;;
43086;SDS011;28708;52.224;6.924;2023-06-01T05:33:51;17.17;;;6.40;;
43086;SDS011;28708;52.224;6.924;2023-06-01T05:36:17;17.93;;;7.17;;
43086;SDS011;28708;52.224;6.924;2023-06-01T05:38:42;17.10;;;7.80;;
43086;SDS011;28708;52.224;6.924;2023-06-01T05:41:09;19.17;;;8.03;;
43086;SDS011;28708;52.224;6.924;2023-06-01T05:43:35;17.03;;;6.90;;
43086;SDS011;28708;52.224;6.924;2023-06-01T05:46:01;19.60;;;7.60;;
43086;SDS011;28708;52.224;6.924;2023-06-01T05:48:27;20.67;;;7.57;;
43086;SDS011;28708;52.224;6.924;2023-06-01T05:50:53;15.43;;;7.13;;
43086;SDS011;28708;52.224;6.924;2023-06-01T05:53:19;18.03;;;7.10;;
43086;SDS011;28708;52.224;6.924;2023-06-01T05:55:49;18.55;;;7.55;;
43086;SDS011;28708;52.224;6.924;2023-06-01T05:58:18;16.70;;;7.25;;
43086;SDS011;28708;52.224;6.924;2023-06-01T06:00:44;11.67;;;6.33;;
43086;SDS011;28708;52.224;6.924;2023-06-01T06:03:11;18.67;;;7.80;;
43086;SDS011;28708;52.224;6.924;2023-06-01T06:05:37;22.30;;;8.33;;
43086;SDS011;28708;52.224;6.924;2023-06-01T06:08:03;14.97;;;7.17;;
43086;SDS011;28708;52.224;6.924;2023-06-01T06:10:28;21.50;;;7.63;;
43086;SDS011;28708;52.224;6.924;2023-06-01T06:12:54;17.53;;;8.17;;
43086;SDS011;28708;52.224;6.924;2023-06-01T06:15:20;19.30;;;7.60;;
43086;SDS011;28708;52.224;6.924;2023-06-01T06:17:46;18.77;;;8.13;;
43086;SDS011;28708;52.224;6.924;2023-06-01T06:20:11;15.97;;;7.80;;
43086;SDS011;28708;52.224;6.924;2023-06-01T06:22:38;19.17;;;8.53;;
43086;SDS011;28708;52.224;6.924;2023-06-01T06:25:04;18.93;;;7.77;;
43086;SDS011;28708;52.224;6.924;2023-06-01T06:27:30;20.23;;;7.37;;
43086;SDS011;28708;52.224;6.924;2023-06-01T06:29:56;16.23;;;7.47;;
43086;SDS011;28708;52.224;6.924;2023-06-01T06:32:21;20.50;;;8.47;;
43086;SDS011;28708;52.224;6.924;2023-06-01T06:34:47;18.13;;;8.13;;
43086;SDS011;28708;52.224;6.924;2023-06-01T06:37:12;19.63;;;8.03;;
43086;SDS011;28708;52.224;6.924;2023-06-01T06:39:38;21.77;;;8.07;;
43086;SDS011;28708;52.224;6.924;2023-06-01T06:42:04;18.33;;;7.47;;
43086;SDS011;28708;52.224;6.924;2023-06-01T06:44:30;15.13;;;7.33;;
43086;SDS011;28708;52.224;6.924;2023-06-01T06:46:59;15.07;;;6.63;;
43086;SDS011;28708;52.224;6.924;2023-06-01T06:49:28;18.93;;;7.10;;
43086;SDS011;28708;52.224;6.924;2023-06-01T06:51:53;18.00;;;7.50;;
43086;SDS011;28708;52.224;6.924;2023-06-01T06:54:19;25.00;;;7.10;;
43086;SDS011;28708;52.224;6.924;2023-06-01T06:56:46;18.87;;;6.73;;
43086;SDS011;28708;52.224;6.924;2023-06-01T06:59:12;11.23;;;6.53;;
43086;SDS011;28708;52.224;6.924;2023-06-01T07:01:39;18.17;;;6.90;;
43086;SDS011;28708;52.224;6.924;2023-06-01T07:04:06;16.77;;;6.30;;
43086;SDS011;28708;52.224;6.924;2023-06-01T07:06:32;14.33;;;6.80;;
43086;SDS011;28708;52.224;6.924;2023-06-01T07:08:59;12.97;;;6.37;;
43086;SDS011;28708;52.224;6.924;2023-06-01T07:11:25;17.50;;;6.83;;
43086;SDS011;28708;52.224;6.924;2023-06-01T07:13:52;12.90;;;6.67;;
43086;SDS011;28708;52.224;6.924;2023-06-01T07:16:18;16.80;;;6.60;;
43086;SDS011;28708;52.224;6.924;2023-06-01T07:18:44;14.23;;;6.97;;
43086;SDS011;28708;52.224;6.924;2023-06-01T07:21:09;16.87;;;6.40;;
43086;SDS011;28708;52.224;6.924;2023-06-01T07:23:35;18.27;;;6.60;;
43086;SDS011;28708;52.224;6.924;2023-06-01T07:26:01;14.87;;;6.97;;
43086;SDS011;28708;52.224;6.924;2023-06-01T07:28:26;16.70;;;6.70;;
43086;SDS011;28708;52.224;6.924;2023-06-01T07:30:53;15.23;;;7.10;;
43086;SDS011;28708;52.224;6.924;2023-06-01T07:33:19;14.67;;;7.13;;
43086;SDS011;28708;52.224;6.924;2023-06-01T07:35:45;17.57;;;7.03;;
43086;SDS011;28708;52.224;6.924;2023-06-01T07:38:11;15.70;;;6.57;;
43086;SDS011;28708;52.224;6.924;2023-06-01T07:40:37;13.97;;;5.97;;
43086;SDS011;28708;52.224;6.924;2023-06-01T07:43:03;15.13;;;7.10;;
43086;SDS011;28708;52.224;6.924;2023-06-01T07:45:28;16.00;;;7.07;;
43086;SDS011;28708;52.224;6.924;2023-06-01T07:47:54;18.60;;;7.20;;
43086;SDS011;28708;52.224;6.924;2023-06-01T07:50:20;14.33;;;6.80;;
43086;SDS011;28708;52.224;6.924;2023-06-01T07:52:45;12.97;;;6.90;;
43086;SDS011;28708;52.224;6.924;2023-06-01T07:55:11;15.70;;;7.03;;
43086;SDS011;28708;52.224;6.924;2023-06-01T07:57:37;15.23;;;7.63;;
43086;SDS011;28708;52.224;6.924;2023-06-01T08:00:03;15.93;;;8.17;;
43086;SDS011;28708;52.224;6.924;2023-06-01T08:02:35;17.30;;;7.60;;
43086;SDS011;28708;52.224;6.924;2023-06-01T08:05:01;16.20;;;7.50;;
43086;SDS011;28708;52.224;6.924;2023-06-01T08:07:27;15.70;;;7.10;;
43086;SDS011;28708;52.224;6.924;2023-06-01T08:09:54;14.40;;;6.57;;
43086;SDS011;28708;52.224;6.924;2023-06-01T08:12:22;11.87;;;7.13;;
43086;SDS011;28708;52.224;6.924;2023-06-01T08:14:48;13.73;;;6.97;;
43086;SDS011;28708;52.224;6.924;2023-06-01T08:17:15;16.00;;;6.80;;
43086;SDS011;28708;52.224;6.924;2023-06-01T08:19:41;16.60;;;7.10;;
43086;SDS011;28708;52.224;6.924;2023-06-01T08:22:07;15.37;;;7.20;;
43086;SDS011;28708;52.224;6.924;2023-06-01T08:24:33;13.13;;;6.80;;
43086;SDS011;28708;52.224;6.924;2023-06-01T08:26:59;15.83;;;6.43;;
43086;SDS011;28708;52.224;6.924;2023-06-01T08:29:25;11.70;;;6.27;;
43086;SDS011;28708;52.224;6.924;2023-06-01T08:31:52;10.43;;;5.63;;
43086;SDS011;28708;52.224;6.924;2023-06-01T08:34:17;11.40;;;6.07;;
43086;SDS011;28708;52.224;6.924;2023-06-01T08:36:44;9.07;;;4.83;;
43086;SDS011;28708;52.224;6.924;2023-06-01T08:39:20;12.37;;;5.87;;
43086;SDS011;28708;52.224;6.924;2023-06-01T08:41:53;11.27;;;5.80;;
43086;SDS011;28708;52.224;6.924;2023-06-01T08:44:55;14.40;;;6.63;;
43086;SDS011;28708;52.224;6.924;2023-06-01T08:47:26;9.90;;;5.43;;
43086;SDS011;28708;52.224;6.924;2023-06-01T08:49:52;15.10;;;6.27;;
43086;SDS011;28708;52.224;6.924;2023-06-01T08:52:19;12.90;;;6.10;;
43086;SDS011;28708;52.224;6.924;2023-06-01T08:54:46;11.60;;;5.10;;
43086;SDS011;28708;52.224;6.924;2023-06-01T08:57:12;13.63;;;6.07;;
43086;SDS011;28708;52.224;6.924;2023-06-01T08:59:38;13.70;;;5.73;;
43086;SDS011;28708;52.224;6.924;2023-06-01T09:02:05;15.33;;;6.00;;
43086;SDS011;28708;52.224;6.924;2023-06-01T09:04:32;14.70;;;5.87;;
43086;SDS011;28708;52.224;6.924;2023-06-01T09:07:03;13.37;;;6.13;;
43086;SDS011;28708;52.224;6.924;2023-06-01T09:09:29;15.17;;;6.30;;
43086;SDS011;28708;52.224;6.924;2023-06-01T09:14:41;16.50;;;6.03;;
43086;SDS011;28708;52.224;6.924;2023-06-01T09:17:07;13.17;;;6.47;;
43086;SDS011;28708;52.224;6.924;2023-06-01T09:19:46;16.60;;;6.35;;
43086;SDS011;28708;52.224;6.924;2023-06-01T09:22:12;14.83;;;6.60;;
43086;SDS011;28708;52.224;6.924;2023-06-01T09:24:38;15.57;;;6.73;;
43086;SDS011;28708;52.224;6.924;2023-06-01T09:27:06;15.97;;;6.43;;
43086;SDS011;28708;52.224;6.924;2023-06-01T09:29:32;9.60;;;5.53;;
43086;SDS011;28708;52.224;6.924;2023-06-01T09:31:59;16.27;;;7.40;;
43086;SDS011;28708;52.224;6.924;2023-06-01T09:34:26;11.53;;;5.93;;
43086;SDS011;28708;52.224;6.924;2023-06-01T09:36:53;11.80;;;5.90;;
43086;SDS011;28708;52.224;6.924;2023-06-01T09:39:20;11.23;;;6.23;;
43086;SDS011;28708;52.224;6.924;2023-06-01T09:41:54;11.00;;;5.60;;
43086;SDS011;28708;52.224;6.924;2023-06-01T09:44:22;8.47;;;4.60;;
43086;SDS011;28708;52.224;6.924;2023-06-01T09:46:50;10.33;;;5.17;;
43086;SDS011;28708;52.224;6.924;2023-06-01T09:49:22;11.00;;;4.70;;
43086;SDS011;28708;52.224;6.924;2023-06-01T09:54:31;9.17;;;4.10;;
43086;SDS011;28708;52.224;6.924;2023-06-01T09:56:59;10.97;;;4.90;;
43086;SDS011;28708;52.224;6.924;2023-06-01T09:59:28;11.20;;;5.17;;
43086;SDS011;28708;52.224;6.924;2023-06-01T10:01:55;11.00;;;4.80;;
43086;SDS011;28708;52.224;6.924;2023-06-01T10:04:23;10.97;;;4.43;;
43086;SDS011;28708;52.224;6.924;2023-06-01T10:06:50;8.80;;;4.17;;
43086;SDS011;28708;52.224;6.924;2023-06-01T10:09:19;9.40;;;4.23;;
43086;SDS011;28708;52.224;6.924;2023-06-01T10:11:46;7.47;;;4.17;;
43086;SDS011;28708;52.224;6.924;2023-06-01T10:14:17;11.23;;;5.03;;
43086;SDS011;28708;52.224;6.924;2023-06-01T10:16:43;12.20;;;5.00;;
43086;SDS011;28708;52.224;6.924;2023-06-01T10:19:09;8.20;;;4.40;;
43086;SDS011;28708;52.224;6.924;2023-06-01T10:21:36;10.27;;;5.00;;
43086;SDS011;28708;52.224;6.924;2023-06-01T10:24:02;7.43;;;4.87;;
43086;SDS011;28708;52.224;6.924;2023-06-01T10:26:29;9.37;;;4.33;;
43086;SDS011;28708;52.224;6.924;2023-06-01T10:28:58;9.98;;;4.93;;
43086;SDS011;28708;52.224;6.924;2023-06-01T10:31:34;8.57;;;4.87;;
43086;SDS011;28708;52.224;6.924;2023-06-01T10:34:00;9.33;;;4.43;;
43086;SDS011;28708;52.224;6.924;2023-06-01T10:39:21;8.20;;;4.20;;
43086;SDS011;28708;52.224;6.924;2023-06-01T10:41:55;6.00;;;3.90;;
43086;SDS011;28708;52.224;6.924;2023-06-01T10:47:06;7.90;;;3.70;;
43086;SDS011;28708;52.224;6.924;2023-06-01T10:52:25;6.87;;;3.40;;
43086;SDS011;28708;52.224;6.924;2023-06-01T10:57:45;8.17;;;3.93;;
43086;SDS011;28708;52.224;6.924;2023-06-01T11:00:20;11.00;;;4.10;;
43086;SDS011;28708;52.224;6.924;2023-06-01T11:02:56;8.23;;;3.87;;
43086;SDS011;28708;52.224;6.924;2023-06-01T11:05:39;10.13;;;3.80;;
43086;SDS011;28708;52.224;6.924;2023-06-01T11:13:34;9.17;;;4.27;;
43086;SDS011;28708;52.224;6.924;2023-06-01T11:21:14;11.53;;;4.23;;
43086;SDS011;28708;52.224;6.924;2023-06-01T11:23:41;10.63;;;4.30;;
43086;SDS011;28708;52.224;6.924;2023-06-01T11:26:08;8.60;;;3.77;;
43086;SDS011;28708;52.224;6.924;2023-06-01T11:28:34;6.93;;;3.93;;
43086;SDS011;28708;52.224;6.924;2023-06-01T11:31:00;7.33;;;3.60;;
43086;SDS011;28708;52.224;6.924;2023-06-01T11:33:27;8.80;;;4.40;;
43086;SDS011;28708;52.224;6.924;2023-06-01T11:35:58;8.20;;;4.13;;
43086;SDS011;28708;52.224;6.924;2023-06-01T11:38:31;9.15;;;3.97;;
43086;SDS011;28708;52.224;6.924;2023-06-01T11:40:59;10.80;;;4.20;;
43086;SDS011;28708;52.224;6.924;2023-06-01T11:43:26;10.53;;;5.00;;
43086;SDS011;28708;52.224;6.924;2023-06-01T11:46:06;9.37;;;4.37;;
43086;SDS011;28708;52.224;6.924;2023-06-01T11:48:33;7.85;;;4.68;;
43086;SDS011;28708;52.224;6.924;2023-06-01T11:51:04;9.95;;;5.38;;
43086;SDS011;28708;52.224;6.924;2023-06-01T11:53:30;14.15;;;4.93;;
43086;SDS011;28708;52.224;6.924;2023-06-01T11:55:57;12.30;;;4.90;;
43086;SDS011;28708;52.224;6.924;2023-06-01T12:00:49;10.97;;;5.07;;
43086;SDS011;28708;52.224;6.924;2023-06-01T12:03:15;8.07;;;4.20;;
43086;SDS011;28708;52.224;6.924;2023-06-01T12:05:44;10.80;;;4.83;;
43086;SDS011;28708;52.224;6.924;2023-06-01T12:08:29;7.00;;;3.47;;
43086;SDS011;28708;52.224;6.924;2023-06-01T12:10:55;7.97;;;3.67;;
43086;SDS011;28708;52.224;6.924;2023-06-01T12:13:21;6.93;;;3.97;;
43086;SDS011;28708;52.224;6.924;2023-06-01T12:15:50;8.63;;;3.60;;
43086;SDS011;28708;52.224;6.924;2023-06-01T12:18:27;7.40;;;3.83;;
43086;SDS011;28708;52.224;6.924;2023-06-01T12:20:57;9.00;;;3.60;;
43086;SDS011;28708;52.224;6.924;2023-06-01T12:23:23;8.87;;;3.97;;
43086;SDS011;28708;52.224;6.924;2023-06-01T12:25:49;9.07;;;4.47;;
43086;SDS011;28708;52.224;6.924;2023-06-01T12:28:20;9.93;;;3.77;;
43086;SDS011;28708;52.224;6.924;2023-06-01T12:30:47;7.87;;;3.70;;
43086;SDS011;28708;52.224;6.924;2023-06-01T12:33:29;7.37;;;3.83;;
43086;SDS011;28708;52.224;6.924;2023-06-01T12:36:00;9.03;;;4.10;;
43086;SDS011;28708;52.224;6.924;2023-06-01T12:38:26;9.57;;;3.80;;
43086;SDS011;28708;52.224;6.924;2023-06-01T12:43:37;8.90;;;3.47;;
43086;SDS011;28708;52.224;6.924;2023-06-01T12:46:03;6.07;;;3.03;;
43086;SDS011;28708;52.224;6.924;2023-06-01T12:48:32;8.07;;;3.17;;
43086;SDS011;28708;52.224;6.924;2023-06-01T12:51:03;6.13;;;2.70;;
43086;SDS011;28708;52.224;6.924;2023-06-01T12:53:30;6.03;;;2.90;;
43086;SDS011;28708;52.224;6.924;2023-06-01T12:55:55;7.37;;;2.33;;
43086;SDS011;28708;52.224;6.924;2023-06-01T12:58:21;6.37;;;2.23;;
43086;SDS011;28708;52.224;6.924;2023-06-01T13:00:47;4.83;;;2.67;;
43086;SDS011;28708;52.224;6.924;2023-06-01T13:03:14;4.53;;;2.60;;
43086;SDS011;28708;52.224;6.924;2023-06-01T13:05:43;3.73;;;2.10;;
43086;SDS011;28708;52.224;6.924;2023-06-01T13:08:12;6.60;;;4.53;;
43086;SDS011;28708;52.224;6.924;2023-06-01T13:10:38;4.63;;;1.87;;
43086;SDS011;28708;52.224;6.924;2023-06-01T13:13:03;4.97;;;2.80;;
43086;SDS011;28708;52.224;6.924;2023-06-01T13:15:29;5.07;;;2.30;;
43086;SDS011;28708;52.224;6.924;2023-06-01T13:17:55;4.03;;;2.10;;
43086;SDS011;28708;52.224;6.924;2023-06-01T13:20:21;5.70;;;2.00;;
43086;SDS011;28708;52.224;6.924;2023-06-01T13:22:47;5.97;;;2.73;;
43086;SDS011;28708;52.224;6.924;2023-06-01T13:25:13;7.37;;;2.77;;
43086;SDS011;28708;52.224;6.924;2023-06-01T13:27:39;5.50;;;2.80;;
43086;SDS011;28708;52.224;6.924;2023-06-01T13:30:05;3.83;;;2.30;;
43086;SDS011;28708;52.224;6.924;2023-06-01T13:32:32;5.20;;;2.33;;
43086;SDS011;28708;52.224;6.924;2023-06-01T13:34:58;3.53;;;2.37;;
43086;SDS011;28708;52.224;6.924;2023-06-01T13:37:24;3.43;;;2.40;;
43086;SDS011;28708;52.224;6.924;2023-06-01T13:39:50;4.33;;;2.50;;
43086;SDS011;28708;52.224;6.924;2023-06-01T13:42:16;6.00;;;2.90;;
43086;SDS011;28708;52.224;6.924;2023-06-01T13:44:41;7.73;;;3.60;;
43086;SDS011;28708;52.224;6.924;2023-06-01T13:47:11;6.40;;;3.17;;
43086;SDS011;28708;52.224;6.924;2023-06-01T13:49:37;8.47;;;3.53;;
43086;SDS011;28708;52.224;6.924;2023-06-01T13:52:03;6.37;;;3.10;;
43086;SDS011;28708;52.224;6.924;2023-06-01T13:54:28;4.63;;;3.00;;
43086;SDS011;28708;52.224;6.924;2023-06-01T13:56:54;4.93;;;2.93;;
43086;SDS011;28708;52.224;6.924;2023-06-01T13:59:19;4.87;;;3.40;;
43086;SDS011;28708;52.224;6.924;2023-06-01T14:01:45;8.93;;;3.80;;
43086;SDS011;28708;52.224;6.924;2023-06-01T14:04:11;7.70;;;3.40;;
43086;SDS011;28708;52.224;6.924;2023-06-01T14:06:37;7.57;;;3.83;;
43086;SDS011;28708;52.224;6.924;2023-06-01T14:09:02;6.50;;;4.17;;
43086;SDS011;28708;52.224;6.924;2023-06-01T14:11:28;10.97;;;4.20;;
43086;SDS011;28708;52.224;6.924;2023-06-01T14:13:54;8.33;;;4.20;;
43086;SDS011;28708;52.224;6.924;2023-06-01T14:16:19;8.93;;;4.00;;
43086;SDS011;28708;52.224;6.924;2023-06-01T14:18:45;7.73;;;4.10;;
43086;SDS011;28708;52.224;6.924;2023-06-01T14:21:10;11.30;;;4.10;;
43086;SDS011;28708;52.224;6.924;2023-06-01T14:23:36;7.83;;;3.83;;
43086;SDS011;28708;52.224;6.924;2023-06-01T14:26:02;9.93;;;4.17;;
43086;SDS011;28708;52.224;6.924;2023-06-01T14:28:27;9.80;;;3.83;;
43086;SDS011;28708;52.224;6.924;2023-06-01T14:30:53;12.33;;;4.00;;
43086;SDS011;28708;52.224;6.924;2023-06-01T14:33:19;11.07;;;3.80;;
43086;SDS011;28708;52.224;6.924;2023-06-01T14:35:45;14.97;;;4.17;;
43086;SDS011;28708;52.224;6.924;2023-06-01T14:38:12;9.07;;;3.70;;
43086;SDS011;28708;52.224;6.924;2023-06-01T14:40:37;7.77;;;3.40;;
43086;SDS011;28708;52.224;6.924;2023-06-01T14:43:03;7.83;;;3.57;;
43086;SDS011;28708;52.224;6.924;2023-06-01T14:45:29;13.80;;;4.30;;
43086;SDS011;28708;52.224;6.924;2023-06-01T14:47:55;13.17;;;3.90;;
43086;SDS011;28708;52.224;6.924;2023-06-01T14:50:20;9.27;;;3.70;;
43086;SDS011;28708;52.224;6.924;2023-06-01T14:52:46;10.43;;;3.40;;
43086;SDS011;28708;52.224;6.924;2023-06-01T14:55:12;9.83;;;3.10;;
43086;SDS011;28708;52.224;6.924;2023-06-01T14:57:38;8.23;;;3.20;;
43086;SDS011;28708;52.224;6.924;2023-06-01T15:00:04;9.37;;;3.23;;
43086;SDS011;28708;52.224;6.924;2023-06-01T15:02:30;9.23;;;3.17;;
43086;SDS011;28708;52.224;6.924;2023-06-01T15:04:57;7.67;;;3.00;;
43086;SDS011;28708;52.224;6.924;2023-06-01T15:07:22;8.23;;;2.20;;
43086;SDS011;28708;52.224;6.924;2023-06-01T15:09:48;9.60;;;3.00;;
43086;SDS011;28708;52.224;6.924;2023-06-01T15:12:14;8.07;;;2.87;;
43086;SDS011;28708;52.224;6.924;2023-06-01T15:14:40;12.73;;;3.00;;
43086;SDS011;28708;52.224;6.924;2023-06-01T15:17:05;11.10;;;3.20;;
43086;SDS011;28708;52.224;6.924;2023-06-01T15:19:31;12.23;;;3.80;;
43086;SDS011;28708;52.224;6.924;2023-06-01T15:21:57;12.77;;;3.97;;
43086;SDS011;28708;52.224;6.924;2023-06-01T15:24:23;7.83;;;3.17;;
43086;SDS011;28708;52.224;6.924;2023-06-01T15:26:48;13.03;;;3.03;;
43086;SDS011;28708;52.224;6.924;2023-06-01T15:29:14;10.50;;;3.60;;